createdAt,value
2017-10-09T00:01:15.882Z,101719.48
2017-10-09T00:03:18.341Z,101719.06
2017-10-09T00:05:20.777Z,101720.41
2017-10-09T00:07:23.351Z,101716.05
2017-10-09T00:09:25.790Z,101719.59
2017-10-09T00:11:28.227Z,101722.28
2017-10-09T00:13:30.739Z,101721.01
2017-10-09T00:15:33.172Z,101727.75
2017-10-09T00:17:35.608Z,101723.70
2017-10-09T00:19:38.073Z,101722.78
2017-10-09T00:21:40.508Z,101722.86
2017-10-09T00:23:42.944Z,101726.05
2017-10-09T00:25:45.409Z,101726.89
2017-10-09T00:27:47.846Z,101724.70
2017-10-09T00:29:50.279Z,101720.23
2017-10-09T00:31:52.750Z,101719.31
2017-10-09T00:33:55.188Z,101717.96
2017-10-09T00:35:57.732Z,101720.66
2017-10-09T00:38:00.208Z,101723.77
2017-10-09T00:40:02.648Z,101721.08
2017-10-09T00:42:05.087Z,101720.66
2017-10-09T00:44:07.561Z,101715.27
2017-10-09T00:46:09.995Z,101714.84
2017-10-09T00:48:12.491Z,101717.96
2017-10-09T00:50:14.960Z,101717.04
2017-10-09T00:52:17.401Z,101715.27
2017-10-09T00:54:19.838Z,101716.61
2017-10-09T00:56:22.342Z,101712.57
2017-10-09T00:58:24.843Z,101715.69
2017-10-09T01:00:27.299Z,101714.77
2017-10-09T01:02:29.771Z,101713.42
2017-10-09T01:04:32.207Z,101708.95
2017-10-09T01:06:34.645Z,101713.84
2017-10-09T01:08:37.215Z,101709.88
2017-10-09T01:10:39.656Z,101707.61
2017-10-09T01:12:42.093Z,101712.57
2017-10-09T01:14:44.596Z,101716.12
2017-10-09T01:16:47.063Z,101715.69
2017-10-09T01:18:49.512Z,101712.50
2017-10-09T01:20:52.001Z,101710.73
2017-10-09T01:22:54.468Z,101713.00
2017-10-09T01:24:56.947Z,101709.45
2017-10-09T01:26:59.413Z,101710.30
2017-10-09T01:29:01.869Z,101711.72
2017-10-09T01:31:04.322Z,101713.56
2017-10-09T01:33:06.791Z,101709.95
2017-10-09T01:35:09.303Z,101706.34
2017-10-09T01:37:11.844Z,101701.45
2017-10-09T01:39:14.308Z,101705.48
2017-10-09T01:41:16.817Z,101701.55
2017-10-09T01:43:19.288Z,101702.40
2017-10-09T01:45:21.786Z,101699.70
2017-10-09T01:47:24.323Z,101701.97
2017-10-09T01:49:26.772Z,101709.63
2017-10-09T01:51:29.236Z,101704.24
2017-10-09T01:53:31.672Z,101706.02
2017-10-09T01:55:34.113Z,101702.79
2017-10-09T01:57:36.567Z,101703.75
2017-10-09T01:59:39.032Z,101704.14
2017-10-09T02:01:41.473Z,101703.32
2017-10-09T02:03:43.976Z,101697.94
2017-10-09T02:05:46.449Z,101696.58
2017-10-09T02:07:48.879Z,101693.96
2017-10-09T02:09:51.383Z,101695.31
2017-10-09T02:11:53.853Z,101698.50
2017-10-09T02:13:56.290Z,101695.31
2017-10-09T02:15:58.772Z,101696.66
2017-10-09T02:18:01.207Z,101698.86
2017-10-09T02:20:03.645Z,101695.31
2017-10-09T02:22:06.102Z,101699.42
2017-10-09T02:24:08.544Z,101702.55
2017-10-09T02:26:11.047Z,101701.63
2017-10-09T02:28:13.524Z,101703.04
2017-10-09T02:30:15.979Z,101700.34
2017-10-09T02:32:18.466Z,101700.27
2017-10-09T02:34:20.944Z,101701.20
2017-10-09T02:36:23.381Z,101700.77
2017-10-09T02:38:26.073Z,101699.50
2017-10-09T02:40:28.546Z,101702.20
2017-10-09T02:42:30.972Z,101696.38
2017-10-09T02:44:33.444Z,101695.88
2017-10-09T02:46:35.905Z,101703.54
2017-10-09T02:48:38.351Z,101700.84
2017-10-09T02:50:40.896Z,101701.34
2017-10-09T02:52:43.363Z,101701.77
2017-10-09T02:54:45.788Z,101701.34
2017-10-09T02:56:48.224Z,101708.01
2017-10-09T02:58:50.684Z,101708.93
2017-10-09T03:00:53.122Z,101708.50
2017-10-09T03:02:55.557Z,101700.95
2017-10-09T03:04:58.028Z,101702.30
2017-10-09T03:07:00.463Z,101706.73
2017-10-09T03:09:02.896Z,101704.57
2017-10-09T03:11:05.356Z,101712.13
2017-10-09T03:13:07.860Z,101715.23
2017-10-09T03:15:10.297Z,101713.89
2017-10-09T03:17:12.768Z,101711.20
2017-10-09T03:19:15.196Z,101705.39
2017-10-09T03:21:17.632Z,101709.03
2017-10-09T03:23:25.701Z,101708.61
2017-10-09T03:28:07.547Z,101708.61
2017-10-09T03:30:10.015Z,101697.73
2017-10-09T03:32:12.452Z,101694.29
2017-10-09T03:34:14.898Z,101702.80
2017-10-09T03:36:17.359Z,101701.52
2017-10-09T03:38:19.797Z,101694.78
2017-10-09T03:40:22.329Z,101696.98
2017-10-09T03:42:24.806Z,101698.33
2017-10-09T03:44:27.270Z,101698.75
2017-10-09T03:46:29.724Z,101695.64
2017-10-09T03:48:32.189Z,101689.40
2017-10-09T03:50:34.623Z,101696.20
2017-10-09T03:52:37.060Z,101697.48
2017-10-09T03:54:39.583Z,101695.28
2017-10-09T03:56:42.030Z,101694.36
2017-10-09T03:58:44.738Z,101697.13
2017-10-09T04:00:47.196Z,101691.31
2017-10-09T04:02:49.637Z,101698.97
2017-10-09T04:04:52.089Z,101697.23
2017-10-09T04:06:54.560Z,101696.70
2017-10-09T04:08:56.996Z,101699.83
2017-10-09T04:10:59.440Z,101700.43
2017-10-09T04:13:01.909Z,101700.85
2017-10-09T04:15:04.365Z,101695.46
2017-10-09T04:17:06.796Z,101694.61
2017-10-09T04:19:09.415Z,101692.84
2017-10-09T04:21:11.857Z,101699.08
2017-10-09T04:23:14.304Z,101700.43
2017-10-09T04:25:16.774Z,101696.38
2017-10-09T04:27:19.232Z,101699.50
2017-10-09T04:29:21.671Z,101692.34
2017-10-09T04:31:24.127Z,101694.54
2017-10-09T04:33:26.585Z,101697.31
2017-10-09T04:35:29.024Z,101699.58
2017-10-09T04:37:31.537Z,101696.38
2017-10-09T04:39:34.885Z,101700.50
2017-10-09T04:41:37.494Z,101689.72
2017-10-09T04:43:39.964Z,101692.91
2017-10-09T04:45:42.441Z,101692.91
2017-10-09T04:47:44.885Z,101692.48
2017-10-09T04:49:47.440Z,101695.61
2017-10-09T04:51:49.899Z,101691.64
2017-10-09T04:53:52.424Z,101694.77
2017-10-09T04:55:54.928Z,101698.88
2017-10-09T04:57:57.365Z,101698.37
2017-10-09T04:59:59.836Z,101697.03
2017-10-09T05:02:02.311Z,101695.25
2017-10-09T05:04:04.758Z,101692.14
2017-10-09T05:06:07.197Z,101693.41
2017-10-09T05:08:09.680Z,101692.06
2017-10-09T05:10:12.187Z,101692.98
2017-10-09T05:12:14.668Z,101690.30
2017-10-09T05:14:17.139Z,101692.98
2017-10-09T05:16:19.579Z,101691.14
2017-10-09T05:18:22.106Z,101687.60
2017-10-09T05:20:24.612Z,101682.56
2017-10-09T05:22:27.055Z,101680.79
2017-10-09T05:24:29.576Z,101682.98
2017-10-09T05:26:32.048Z,101689.80
2017-10-09T05:28:34.487Z,101680.37
2017-10-09T05:30:36.927Z,101681.22
2017-10-09T05:32:39.456Z,101676.75
2017-10-09T05:34:41.889Z,101671.86
2017-10-09T05:36:44.428Z,101678.09
2017-10-09T05:38:46.948Z,101672.70
2017-10-09T05:40:49.413Z,101670.94
2017-10-09T05:42:52.015Z,101670.09
2017-10-09T05:44:54.503Z,101669.59
2017-10-09T05:46:56.950Z,101669.16
2017-10-09T05:48:59.392Z,101673.63
2017-10-09T05:51:01.862Z,101673.70
2017-10-09T05:53:04.425Z,101676.83
2017-10-09T05:55:06.936Z,101672.78
2017-10-09T05:57:09.413Z,101662.50
2017-10-09T05:59:11.859Z,101668.31
2017-10-09T06:01:14.335Z,101661.69
2017-10-09T06:03:16.825Z,101661.58
2017-10-09T06:05:19.285Z,101663.78
2017-10-09T06:07:21.818Z,101671.54
2017-10-09T06:09:24.302Z,101665.62
2017-10-09T06:11:26.753Z,101665.20
2017-10-09T06:13:29.195Z,101666.55
2017-10-09T06:15:31.684Z,101668.31
2017-10-09T06:17:34.132Z,101671.44
2017-10-09T06:19:36.571Z,101677.25
2017-10-09T06:21:39.058Z,101675.97
2017-10-09T06:23:41.528Z,101677.32
2017-10-09T06:25:43.982Z,101676.39
2017-10-09T06:27:46.625Z,101688.45
2017-10-09T06:29:49.136Z,101679.62
2017-10-09T06:31:51.655Z,101679.62
2017-10-09T06:33:54.170Z,101678.67
2017-10-09T06:35:56.607Z,101674.13
2017-10-09T06:37:59.044Z,101673.63
2017-10-09T06:40:01.655Z,101672.78
2017-10-09T06:42:04.092Z,101670.09
2017-10-09T06:44:06.591Z,101673.28
2017-10-09T06:46:09.067Z,101671.44
2017-10-09T06:48:11.579Z,101670.69
2017-10-09T06:50:14.029Z,101670.59
2017-10-09T06:52:16.495Z,101675.05
2017-10-09T06:54:18.983Z,101673.28
2017-10-09T06:56:21.425Z,101675.58
2017-10-09T06:58:23.905Z,101678.17
2017-10-09T07:00:26.399Z,101680.86
2017-10-09T07:02:28.836Z,101681.72
2017-10-09T07:04:31.292Z,101681.28
2017-10-09T07:06:33.835Z,101680.44
2017-10-09T07:08:36.440Z,101681.78
2017-10-09T07:10:39.110Z,101689.44
2017-10-09T07:12:41.543Z,101692.14
2017-10-09T07:14:43.976Z,101703.27
2017-10-09T07:16:46.439Z,101698.73
2017-10-09T07:18:48.882Z,101695.61
2017-10-09T07:20:51.323Z,101703.69
2017-10-09T07:22:53.875Z,101708.16
2017-10-09T07:24:56.315Z,101709.01
2017-10-09T07:26:58.777Z,101711.70
2017-10-09T07:29:01.271Z,101709.01
2017-10-09T07:31:03.710Z,101712.97
2017-10-09T07:33:06.140Z,101708.51
2017-10-09T07:35:08.649Z,101711.70
2017-10-09T07:37:11.103Z,101720.63
2017-10-09T07:39:13.548Z,101713.05
2017-10-09T07:41:16.101Z,101715.81
2017-10-09T07:43:18.544Z,101713.30
2017-10-09T07:45:21.101Z,101713.80
2017-10-09T07:47:23.575Z,101715.29
2017-10-09T07:49:26.038Z,101719.94
2017-10-09T07:51:28.492Z,101714.69
2017-10-09T07:53:30.978Z,101711.64
2017-10-09T07:55:33.450Z,101721.75
2017-10-09T07:57:35.887Z,101717.36
2017-10-09T07:59:38.351Z,101713.49
2017-10-09T08:01:40.859Z,101716.69
2017-10-09T08:03:43.304Z,101719.09
2017-10-09T08:05:45.876Z,101714.81
2017-10-09T08:07:48.322Z,101706.12
2017-10-09T08:09:50.752Z,101715.55
2017-10-09T08:11:53.225Z,101709.67
2017-10-09T08:13:55.660Z,101717.15
2017-10-09T08:15:58.096Z,101708.14
2017-10-09T08:18:00.594Z,101707.58
2017-10-09T08:20:03.046Z,101713.28
2017-10-09T08:22:05.519Z,101710.02
2017-10-09T08:24:07.988Z,101711.72
2017-10-09T08:26:10.449Z,101709.03
2017-10-09T08:28:12.913Z,101708.35
2017-10-09T08:30:15.402Z,101706.86
2017-10-09T08:32:17.864Z,101707.28
2017-10-09T08:34:20.306Z,101706.26
2017-10-09T08:36:22.781Z,101708.80
2017-10-09T08:38:25.225Z,101702.81
2017-10-09T08:40:27.756Z,101691.97
2017-10-09T08:42:30.222Z,101692.73
2017-10-09T08:44:32.677Z,101696.60
2017-10-09T08:46:35.305Z,101694.69
2017-10-09T08:48:37.807Z,101695.46
2017-10-09T08:50:40.247Z,101691.84
2017-10-09T08:52:42.675Z,101700.17
2017-10-09T08:54:45.152Z,101701.02
2017-10-09T08:56:47.601Z,101700.52
2017-10-09T08:58:50.056Z,101704.03
2017-10-09T09:00:52.525Z,101699.92
2017-10-09T09:02:54.984Z,101699.00
2017-10-09T09:04:57.415Z,101703.39
2017-10-09T09:06:59.872Z,101708.18
2017-10-09T09:09:02.360Z,101701.05
2017-10-09T09:11:05.814Z,101701.87
2017-10-09T09:13:08.296Z,101703.99
2017-10-09T09:15:10.787Z,101707.11
2017-10-09T09:17:13.249Z,101708.28
2017-10-09T09:19:15.712Z,101706.86
2017-10-09T09:21:18.163Z,101709.48
2017-10-09T09:23:20.647Z,101704.87
2017-10-09T09:25:23.125Z,101707.38
2017-10-09T09:27:25.584Z,101701.00
2017-10-09T09:29:28.069Z,101702.27
2017-10-09T09:31:30.525Z,101699.82
2017-10-09T09:33:32.990Z,101705.70
2017-10-09T09:35:35.520Z,101702.94
2017-10-09T09:37:37.984Z,101703.72
2017-10-09T09:39:40.428Z,101709.00
2017-10-09T09:41:42.861Z,101703.61
2017-10-09T09:43:45.329Z,101708.42
2017-10-09T09:45:47.774Z,101708.42
2017-10-09T09:47:50.348Z,101712.82
2017-10-09T09:49:52.808Z,101708.78
2017-10-09T09:51:55.240Z,101709.02
2017-10-09T09:53:57.696Z,101715.34
2017-10-09T09:56:00.173Z,101709.88
2017-10-09T09:58:02.646Z,101714.27
2017-10-09T10:00:05.099Z,101719.23
2017-10-09T10:02:07.563Z,101710.65
2017-10-09T10:04:10.038Z,101710.47
2017-10-09T10:06:12.478Z,101712.24
2017-10-09T10:08:14.952Z,101709.97
2017-10-09T10:10:17.416Z,101711.67
2017-10-09T10:12:19.849Z,101715.71
2017-10-09T10:14:22.306Z,101712.91
2017-10-09T10:16:24.862Z,101715.21
2017-10-09T10:18:27.326Z,101721.77
2017-10-09T10:20:29.800Z,101711.91
2017-10-09T10:22:32.249Z,101711.84
2017-10-09T10:24:34.737Z,101711.77
2017-10-09T10:26:37.193Z,101705.88
2017-10-09T10:28:39.648Z,101712.01
2017-10-09T10:30:42.085Z,101706.19
2017-10-09T10:32:44.535Z,101708.39
2017-10-09T10:34:46.971Z,101707.97
2017-10-09T10:36:49.488Z,101703.84
2017-10-09T10:38:51.983Z,101701.58
2017-10-09T10:40:54.519Z,101698.80
2017-10-09T10:42:56.965Z,101697.87
2017-10-09T10:44:59.446Z,101689.27
2017-10-09T10:47:01.904Z,101686.49
2017-10-09T10:49:04.424Z,101686.34
2017-10-09T10:51:06.878Z,101681.88
2017-10-09T10:53:09.330Z,101673.29
2017-10-09T10:55:11.820Z,101672.36
2017-10-09T10:57:14.287Z,101674.64
2017-10-09T10:59:16.740Z,101674.11
2017-10-09T11:01:19.181Z,101679.92
2017-10-09T11:03:21.645Z,101669.56
2017-10-09T11:05:24.096Z,101677.95
2017-10-09T11:07:26.591Z,101671.69
2017-10-09T11:09:29.053Z,101666.67
2017-10-09T11:11:31.511Z,101662.62
2017-10-09T11:13:34.019Z,101656.70
2017-10-09T11:15:36.487Z,101659.25
2017-10-09T11:17:38.923Z,101663.30
2017-10-09T11:19:41.677Z,101657.33
2017-10-09T11:21:44.144Z,101662.61
2017-10-09T11:23:47.175Z,101662.19
2017-10-09T11:25:49.664Z,101657.57
2017-10-09T11:27:52.240Z,101653.45
2017-10-09T11:29:54.692Z,101645.78
2017-10-09T11:31:57.200Z,101645.78
2017-10-09T11:33:59.830Z,101640.21
2017-10-09T11:36:03.000Z,101636.66
2017-10-09T11:38:05.501Z,101633.89
2017-10-09T11:40:07.985Z,101635.52
2017-10-09T11:42:10.436Z,101630.97
2017-10-09T11:44:12.910Z,101629.02
2017-10-09T11:46:15.393Z,101629.02
2017-10-09T11:48:17.856Z,101619.58
2017-10-09T11:50:20.341Z,101624.05
2017-10-09T11:52:22.796Z,101611.84
2017-10-09T11:54:25.245Z,101614.11
2017-10-09T11:56:27.682Z,101610.48
2017-10-09T11:58:30.170Z,101610.06
2017-10-09T12:00:32.603Z,101609.64
2017-10-09T12:02:35.041Z,101610.84
2017-10-09T12:04:37.522Z,101614.03
2017-10-09T12:06:39.991Z,101602.82
2017-10-09T12:08:42.458Z,101609.98
2017-10-09T12:10:44.920Z,101605.02
2017-10-09T12:12:47.368Z,101606.26
2017-10-09T12:14:49.865Z,101610.23
2017-10-09T12:16:52.316Z,101602.56
2017-10-09T12:18:54.815Z,101599.78
2017-10-09T12:20:57.248Z,101597.52
2017-10-09T12:22:59.749Z,101595.32
2017-10-09T12:25:02.197Z,101588.08
2017-10-09T12:27:04.684Z,101592.05
2017-10-09T12:29:07.165Z,101586.05
2017-10-09T12:31:09.624Z,101585.20
2017-10-09T12:33:12.073Z,101583.77
2017-10-09T12:35:14.565Z,101580.23
2017-10-09T12:37:16.999Z,101579.23
2017-10-09T12:39:19.442Z,101575.67
2017-10-09T12:41:21.956Z,101574.75
2017-10-09T12:43:24.409Z,101581.50
2017-10-09T12:45:26.849Z,101574.33
2017-10-09T12:47:29.305Z,101568.44
2017-10-09T12:49:31.756Z,101566.59
2017-10-09T12:51:34.454Z,101575.52
2017-10-09T12:53:36.996Z,101571.48
2017-10-09T12:55:39.472Z,101574.17
2017-10-09T12:57:41.945Z,101571.48
2017-10-09T12:59:44.400Z,101567.75
2017-10-09T13:01:46.832Z,101564.20
2017-10-09T13:03:49.272Z,101566.91
2017-10-09T13:05:51.737Z,101568.67
2017-10-09T13:07:54.209Z,101561.51
2017-10-09T13:09:56.648Z,101564.63
2017-10-09T13:11:59.186Z,101562.36
2017-10-09T13:14:01.621Z,101559.77
2017-10-09T13:16:04.113Z,101561.12
2017-10-09T13:18:06.644Z,101561.12
2017-10-09T13:20:09.109Z,101554.38
2017-10-09T13:22:11.566Z,101553.95
2017-10-09T13:24:14.033Z,101554.27
2017-10-09T13:26:16.468Z,101546.28
2017-10-09T13:28:18.901Z,101545.44
2017-10-09T13:30:21.465Z,101549.38
2017-10-09T13:32:23.956Z,101542.73
2017-10-09T13:34:26.428Z,101548.98
2017-10-09T13:36:28.889Z,101545.02
2017-10-09T13:38:31.323Z,101542.31
2017-10-09T13:40:33.764Z,101539.63
2017-10-09T13:42:36.289Z,101532.45
2017-10-09T13:44:38.739Z,101530.60
2017-10-09T13:46:41.189Z,101531.61
2017-10-09T13:48:43.701Z,101537.08
2017-10-09T13:50:46.141Z,101528.91
2017-10-09T13:52:48.700Z,101519.13
2017-10-09T13:54:51.188Z,101517.27
2017-10-09T13:56:53.732Z,101521.31
2017-10-09T13:58:56.189Z,101519.05
2017-10-09T14:00:58.652Z,101519.13
2017-10-09T14:03:01.152Z,101517.27
2017-10-09T14:05:03.584Z,101518.70
2017-10-09T14:07:06.052Z,101515.50
2017-10-09T14:09:08.490Z,101517.89
2017-10-09T14:11:10.932Z,101511.53
2017-10-09T14:13:13.393Z,101511.64
2017-10-09T14:15:15.990Z,101509.88
2017-10-09T14:17:18.504Z,101509.45
2017-10-09T14:19:21.123Z,101507.17
2017-10-09T14:21:23.574Z,101518.46
2017-10-09T14:23:26.022Z,101509.52
2017-10-09T14:25:28.569Z,101507.67
2017-10-09T14:27:31.000Z,101511.72
2017-10-09T14:29:33.451Z,101507.75
2017-10-09T14:39:45.750Z,101507.94
2017-10-09T14:41:48.210Z,101503.89
2017-10-09T14:43:50.720Z,101501.20
2017-10-09T14:45:53.256Z,101500.78
2017-10-09T14:47:55.694Z,101498.23
2017-10-09T14:49:58.226Z,101498.23
2017-10-09T14:52:00.676Z,101498.73
2017-10-09T14:54:03.163Z,101491.14
2017-10-09T14:56:05.721Z,101491.56
2017-10-09T14:58:08.185Z,101490.33
2017-10-09T15:00:10.692Z,101491.76
2017-10-09T15:02:13.161Z,101491.76
2017-10-09T15:04:15.716Z,101495.45
2017-10-09T15:06:18.188Z,101491.48
2017-10-09T15:08:20.648Z,101489.64
2017-10-09T15:10:23.127Z,101484.75
2017-10-09T15:12:25.572Z,101484.86
2017-10-09T15:14:28.054Z,101481.31
2017-10-09T15:16:30.526Z,101479.12
2017-10-09T15:18:32.960Z,101485.86
2017-10-09T15:20:35.457Z,101480.47
2017-10-09T15:22:37.902Z,101476.00
2017-10-09T15:24:40.352Z,101479.97
2017-10-09T15:26:42.814Z,101474.23
2017-10-09T15:28:45.247Z,101479.12
2017-10-09T15:30:47.723Z,101473.23
2017-10-09T15:32:50.282Z,101474.65
2017-10-09T15:34:52.822Z,101473.80
2017-10-09T15:36:55.290Z,101477.00
2017-10-09T15:38:57.755Z,101475.15
2017-10-09T15:41:00.231Z,101476.08
2017-10-09T15:43:02.678Z,101480.20
2017-10-09T15:45:05.164Z,101473.87
2017-10-09T15:47:07.620Z,101480.20
2017-10-09T15:49:10.152Z,101475.77
2017-10-09T15:51:12.723Z,101472.11
2017-10-09T15:53:15.179Z,101469.52
2017-10-09T15:55:17.742Z,101462.67
2017-10-09T15:57:20.204Z,101466.33
2017-10-09T15:59:22.635Z,101463.20
2017-10-09T16:01:25.071Z,101467.14
2017-10-09T16:03:27.530Z,101467.56
2017-10-09T16:05:30.051Z,101463.52
2017-10-09T16:07:32.532Z,101467.06
2017-10-09T16:09:34.989Z,101463.52
2017-10-09T16:11:37.489Z,101470.68
2017-10-09T16:13:39.916Z,101469.68
2017-10-09T16:15:42.460Z,101476.34
2017-10-09T16:17:44.900Z,101482.23
2017-10-09T16:19:47.331Z,101479.12
2017-10-09T16:21:49.804Z,101479.12
2017-10-09T16:23:52.261Z,101479.04
2017-10-09T16:25:54.699Z,101483.16
2017-10-09T16:27:57.169Z,101479.97
2017-10-09T16:29:59.620Z,101478.27
2017-10-09T16:32:02.128Z,101479.55
2017-10-09T16:34:04.595Z,101476.92
2017-10-09T16:36:07.029Z,101480.89
2017-10-09T16:38:09.484Z,101479.62
2017-10-09T16:40:12.009Z,101479.62
2017-10-09T16:42:14.497Z,101477.34
2017-10-09T16:44:16.937Z,101475.00
2017-10-09T16:46:19.494Z,101475.84
2017-10-09T16:48:21.964Z,101473.53
2017-10-09T16:50:24.424Z,101478.01
2017-10-09T16:52:26.925Z,101475.66
2017-10-09T16:54:29.363Z,101478.93
2017-10-09T16:56:31.910Z,101478.01
2017-10-09T16:58:34.364Z,101485.17
2017-10-09T17:00:36.873Z,101482.47
2017-10-09T17:02:39.312Z,101473.03
2017-10-09T17:04:41.770Z,101472.53
2017-10-09T17:06:44.228Z,101472.88
2017-10-09T17:08:46.689Z,101470.19
2017-10-09T17:10:49.149Z,101471.88
2017-10-09T17:12:51.628Z,101471.77
2017-10-09T17:14:54.115Z,101478.09
2017-10-09T17:16:56.599Z,101473.54
2017-10-09T17:18:59.120Z,101475.31
2017-10-09T17:21:01.581Z,101472.54
2017-10-09T17:23:04.053Z,101472.96
2017-10-09T17:25:06.493Z,101467.99
2017-10-09T17:27:08.943Z,101475.66
2017-10-09T17:29:11.496Z,101475.58
2017-10-09T17:31:13.946Z,101478.17
2017-10-09T17:33:16.438Z,101478.17
2017-10-09T17:35:18.918Z,101474.05
2017-10-09T17:37:21.372Z,101476.66
2017-10-09T17:39:23.808Z,101477.16
2017-10-09T17:41:26.326Z,101471.69
2017-10-09T17:43:28.763Z,101477.59
2017-10-09T17:45:31.196Z,101482.13
2017-10-09T17:47:33.648Z,101482.56
2017-10-09T17:49:36.086Z,101483.41
2017-10-09T17:51:38.526Z,101479.70
2017-10-09T17:53:40.990Z,101480.13
2017-10-09T17:55:43.446Z,101475.97
2017-10-09T17:57:46.092Z,101488.22
2017-10-09T17:59:48.564Z,101484.06
2017-10-09T18:01:50.996Z,101485.84
2017-10-09T18:03:53.445Z,101482.83
2017-10-09T18:05:55.949Z,101479.52
2017-10-09T18:07:58.395Z,101484.91
2017-10-09T18:10:00.845Z,101478.09
2017-10-09T18:12:03.311Z,101480.79
2017-10-09T18:14:05.757Z,101475.31
2017-10-09T18:16:08.205Z,101471.27
2017-10-09T18:18:10.675Z,101469.00
2017-10-09T18:20:13.219Z,101472.12
2017-10-09T18:22:15.685Z,101471.59
2017-10-09T18:24:18.147Z,101470.66
2017-10-09T18:26:20.594Z,101473.36
2017-10-09T18:28:23.052Z,101479.17
2017-10-09T18:30:25.527Z,101470.08
2017-10-09T18:32:28.032Z,101474.55
2017-10-09T18:34:30.476Z,101469.08
2017-10-09T18:36:33.020Z,101470.85
2017-10-09T18:38:35.477Z,101466.70
2017-10-09T18:40:37.931Z,101464.34
2017-10-09T18:42:40.595Z,101463.92
2017-10-09T18:44:44.356Z,101461.99
2017-10-09T18:46:46.912Z,101461.48
2017-10-09T18:48:50.323Z,101460.95
2017-10-09T18:50:52.832Z,101465.92
2017-10-09T18:52:55.278Z,101464.08
2017-10-09T18:54:57.878Z,101467.12
2017-10-09T18:57:00.332Z,101464.84
2017-10-09T18:59:02.908Z,101462.57
2017-10-09T19:01:05.444Z,101464.77
2017-10-09T19:03:07.898Z,101462.49
2017-10-09T19:05:10.874Z,101459.69
2017-10-09T19:07:14.973Z,101456.48
2017-10-09T19:09:17.927Z,101455.56
2017-10-09T19:11:20.902Z,101459.10
2017-10-09T19:13:23.419Z,101461.30
2017-10-09T19:15:25.862Z,101454.05
2017-10-09T19:17:28.344Z,101455.41
2017-10-09T19:19:30.820Z,101447.73
2017-10-09T19:21:33.297Z,101452.52
2017-10-09T19:23:35.727Z,101452.94
2017-10-09T19:25:38.196Z,101452.02
2017-10-09T19:27:40.637Z,101446.12
2017-10-09T19:29:43.073Z,101445.61
2017-10-09T19:31:45.540Z,101450.93
2017-10-09T19:33:47.980Z,101447.39
2017-10-09T19:35:50.498Z,101444.58
2017-10-09T19:37:53.060Z,101440.03
2017-10-09T19:39:55.523Z,101437.33
2017-10-09T19:41:57.974Z,101436.91
2017-10-09T19:44:00.464Z,101442.23
2017-10-09T19:46:02.910Z,101436.33
2017-10-09T19:48:05.412Z,101437.67
2017-10-09T19:50:07.883Z,101440.30
2017-10-09T19:52:10.317Z,101437.59
2017-10-09T19:54:12.841Z,101438.95
2017-10-09T19:56:15.312Z,101431.28
2017-10-09T19:58:17.840Z,101437.52
2017-10-09T20:00:20.524Z,101428.47
2017-10-09T20:02:23.004Z,101433.36
2017-10-09T20:04:25.484Z,101433.36
2017-10-09T20:06:27.956Z,101425.77
2017-10-09T20:08:30.430Z,101430.24
2017-10-09T20:10:32.892Z,101427.13
2017-10-09T20:12:35.330Z,101421.33
2017-10-09T20:14:37.851Z,101424.03
2017-10-09T20:16:40.299Z,101426.73
2017-10-09T20:18:42.777Z,101427.23
2017-10-09T20:20:45.385Z,101420.37
2017-10-09T20:22:47.824Z,101424.03
2017-10-09T20:24:50.265Z,101425.88
2017-10-09T20:26:52.728Z,101424.53
2017-10-09T20:28:55.191Z,101431.28
2017-10-09T20:30:57.682Z,101425.38
2017-10-09T20:33:00.152Z,101428.58
2017-10-09T20:35:02.601Z,101423.69
2017-10-09T20:37:05.115Z,101420.48
2017-10-09T20:39:07.570Z,101424.95
2017-10-09T20:41:10.041Z,101428.16
2017-10-09T20:43:12.490Z,101421.49
2017-10-09T20:45:14.956Z,101419.64
2017-10-09T20:47:17.392Z,101417.45
2017-10-09T20:49:19.925Z,101420.56
2017-10-09T20:51:22.391Z,101420.64
2017-10-09T20:53:24.842Z,101413.91
2017-10-09T20:55:27.285Z,101418.38
2017-10-09T20:57:29.765Z,101412.55
2017-10-09T20:59:32.216Z,101407.34
2017-10-09T21:01:34.920Z,101403.19
2017-10-09T21:03:37.381Z,101410.36
2017-10-09T21:05:39.827Z,101412.63
2017-10-09T21:07:42.276Z,101409.52
2017-10-09T21:09:44.935Z,101416.59
2017-10-09T21:11:47.440Z,101409.86
2017-10-09T21:13:49.977Z,101411.20
2017-10-09T21:15:52.658Z,101411.62
2017-10-09T21:17:55.101Z,101409.43
2017-10-09T21:19:57.537Z,101407.66
2017-10-09T21:22:00.012Z,101412.55
2017-10-09T21:24:02.459Z,101410.78
2017-10-09T21:26:04.902Z,101408.42
2017-10-09T21:28:07.368Z,101411.55
2017-10-09T21:30:09.822Z,101410.20
2017-10-09T21:32:12.256Z,101404.38
2017-10-09T21:34:14.717Z,101410.13
2017-10-09T21:36:17.162Z,101413.32
2017-10-09T21:38:19.704Z,101400.76
2017-10-09T21:40:22.199Z,101406.58
2017-10-09T21:42:24.632Z,101402.11
2017-10-09T21:44:27.138Z,101397.64
2017-10-09T21:46:29.598Z,101394.94
2017-10-09T21:48:32.082Z,101394.17
2017-10-09T21:50:34.538Z,101395.86
2017-10-09T21:52:37.009Z,101394.59
2017-10-09T21:54:39.445Z,101390.47
2017-10-09T21:56:41.889Z,101392.83
2017-10-09T21:58:44.386Z,101394.17
2017-10-09T22:00:46.842Z,101386.08
2017-10-09T22:02:49.428Z,101385.34
2017-10-09T22:04:51.889Z,101379.02
2017-10-09T22:06:54.404Z,101381.30
2017-10-09T22:08:56.844Z,101376.33
2017-10-09T22:10:59.297Z,101375.98
2017-10-09T22:13:01.745Z,101376.83
2017-10-09T22:15:04.191Z,101377.84
2017-10-09T22:17:06.657Z,101380.95
2017-10-09T22:19:09.119Z,101372.86
2017-10-09T22:21:11.569Z,101366.13
2017-10-09T22:23:14.039Z,101367.89
2017-10-09T22:25:16.497Z,101366.55
2017-10-09T22:27:18.929Z,101358.03
2017-10-09T22:29:21.425Z,101367.05
2017-10-09T22:31:23.874Z,101363.08
2017-10-09T22:33:26.312Z,101361.65
2017-10-09T22:35:28.769Z,101360.80
2017-10-09T22:37:31.244Z,101358.95
2017-10-09T22:39:33.696Z,101361.73
2017-10-09T22:41:36.160Z,101354.91
2017-10-09T22:43:38.607Z,101353.13
2017-10-09T22:45:41.133Z,101352.71
2017-10-09T22:47:43.613Z,101352.29
2017-10-09T22:49:46.140Z,101347.31
2017-10-09T22:51:48.582Z,101350.44
2017-10-09T22:53:51.121Z,101346.89
2017-10-09T22:55:53.576Z,101346.39
2017-10-09T22:57:56.054Z,101350.86
2017-10-09T22:59:58.514Z,101350.44
2017-10-09T23:02:00.941Z,101347.82
2017-10-09T23:04:03.545Z,101343.69
2017-10-09T23:06:06.007Z,101343.27
2017-10-09T23:08:08.470Z,101340.27
2017-10-09T23:10:11.864Z,101343.77
2017-10-09T23:12:14.336Z,101343.35
2017-10-09T23:14:16.860Z,101338.91
2017-10-09T23:16:19.307Z,101334.45
2017-10-09T23:18:21.770Z,101332.17
2017-10-09T23:20:24.215Z,101328.13
2017-10-09T23:22:26.728Z,101330.20
2017-10-09T23:24:29.194Z,101322.20
2017-10-09T23:26:31.625Z,101319.92
2017-10-09T23:28:34.072Z,101310.48